sensor_id;sensor_type;location;lat;lon;timestamp;P1;durP1;ratioP1;P2;durP2;ratioP2
53207;SDS011;39093;52.788;6.940;2023-01-09T00:01:34;6.43;;;2.38;;
53207;SDS011;39093;52.788;6.940;2023-01-09T00:04:04;9.13;;;2.10;;
53207;SDS011;39093;52.788;6.940;2023-01-09T00:06:32;6.88;;;1.88;;
53207;SDS011;39093;52.788;6.940;2023-01-09T00:09:16;4.63;;;2.70;;
53207;SDS011;39093;52.788;6.940;2023-01-09T00:11:48;4.22;;;2.00;;
53207;SDS011;39093;52.788;6.940;2023-01-09T00:14:16;5.30;;;2.03;;
53207;SDS011;39093;52.788;6.940;2023-01-09T00:16:44;5.25;;;2.13;;
53207;SDS011;39093;52.788;6.940;2023-01-09T00:19:11;3.92;;;1.73;;
53207;SDS011;39093;52.788;6.940;2023-01-09T00:21:38;3.00;;;1.90;;
53207;SDS011;39093;52.788;6.940;2023-01-09T00:24:05;3.47;;;2.10;;
53207;SDS011;39093;52.788;6.940;2023-01-09T00:26:33;5.97;;;2.13;;
53207;SDS011;39093;52.788;6.940;2023-01-09T00:29:01;4.72;;;2.15;;
53207;SDS011;39093;52.788;6.940;2023-01-09T00:34:20;8.65;;;2.45;;
53207;SDS011;39093;52.788;6.940;2023-01-09T00:36:47;6.43;;;2.05;;
53207;SDS011;39093;52.788;6.940;2023-01-09T00:39:24;7.43;;;2.40;;
53207;SDS011;39093;52.788;6.940;2023-01-09T00:41:51;6.95;;;2.85;;
53207;SDS011;39093;52.788;6.940;2023-01-09T00:46:54;8.45;;;3.20;;
53207;SDS011;39093;52.788;6.940;2023-01-09T00:51:58;11.02;;;2.92;;
53207;SDS011;39093;52.788;6.940;2023-01-09T00:54:25;15.45;;;2.80;;
53207;SDS011;39093;52.788;6.940;2023-01-09T00:56:54;11.02;;;2.85;;
53207;SDS011;39093;52.788;6.940;2023-01-09T00:59:21;7.50;;;3.97;;
53207;SDS011;39093;52.788;6.940;2023-01-09T01:01:48;8.00;;;3.15;;
53207;SDS011;39093;52.788;6.940;2023-01-09T01:04:16;11.70;;;4.90;;
53207;SDS011;39093;52.788;6.940;2023-01-09T01:07:01;9.85;;;4.68;;
53207;SDS011;39093;52.788;6.940;2023-01-09T01:09:46;9.82;;;4.53;;
53207;SDS011;39093;52.788;6.940;2023-01-09T01:12:13;9.82;;;4.30;;
53207;SDS011;39093;52.788;6.940;2023-01-09T01:14:40;10.73;;;3.88;;
53207;SDS011;39093;52.788;6.940;2023-01-09T01:17:07;3.10;;;2.38;;
53207;SDS011;39093;52.788;6.940;2023-01-09T01:19:34;3.90;;;2.10;;
53207;SDS011;39093;52.788;6.940;2023-01-09T01:22:02;5.75;;;2.60;;
53207;SDS011;39093;52.788;6.940;2023-01-09T01:24:29;8.00;;;3.05;;
53207;SDS011;39093;52.788;6.940;2023-01-09T01:26:56;5.65;;;2.80;;
53207;SDS011;39093;52.788;6.940;2023-01-09T01:29:23;5.60;;;2.70;;
53207;SDS011;39093;52.788;6.940;2023-01-09T01:31:50;6.60;;;3.33;;
53207;SDS011;39093;52.788;6.940;2023-01-09T01:34:17;6.13;;;2.90;;
53207;SDS011;39093;52.788;6.940;2023-01-09T01:36:44;11.82;;;4.28;;
53207;SDS011;39093;52.788;6.940;2023-01-09T01:39:11;6.53;;;4.00;;
53207;SDS011;39093;52.788;6.940;2023-01-09T01:41:38;7.28;;;3.13;;
53207;SDS011;39093;52.788;6.940;2023-01-09T01:44:06;7.05;;;3.58;;
53207;SDS011;39093;52.788;6.940;2023-01-09T01:47:11;6.03;;;2.50;;
53207;SDS011;39093;52.788;6.940;2023-01-09T01:49:39;5.07;;;3.15;;
53207;SDS011;39093;52.788;6.940;2023-01-09T01:52:06;6.10;;;3.10;;
53207;SDS011;39093;52.788;6.940;2023-01-09T01:54:33;6.50;;;3.20;;
53207;SDS011;39093;52.788;6.940;2023-01-09T01:57:01;5.45;;;3.60;;
53207;SDS011;39093;52.788;6.940;2023-01-09T01:59:36;7.20;;;3.10;;
53207;SDS011;39093;52.788;6.940;2023-01-09T02:02:06;7.85;;;3.80;;
53207;SDS011;39093;52.788;6.940;2023-01-09T02:04:36;8.18;;;3.83;;
53207;SDS011;39093;52.788;6.940;2023-01-09T02:07:07;7.32;;;4.47;;
53207;SDS011;39093;52.788;6.940;2023-01-09T02:09:35;8.18;;;4.10;;
53207;SDS011;39093;52.788;6.940;2023-01-09T02:12:15;10.55;;;4.72;;
53207;SDS011;39093;52.788;6.940;2023-01-09T02:14:44;7.20;;;3.72;;
53207;SDS011;39093;52.788;6.940;2023-01-09T02:17:15;10.45;;;4.15;;
53207;SDS011;39093;52.788;6.940;2023-01-09T02:38:23;2.65;;;1.38;;
53207;SDS011;39093;52.788;6.940;2023-01-09T02:43:24;5.95;;;1.77;;
53207;SDS011;39093;52.788;6.940;2023-01-09T02:45:52;6.57;;;1.45;;
53207;SDS011;39093;52.788;6.940;2023-01-09T02:48:19;2.88;;;1.75;;
53207;SDS011;39093;52.788;6.940;2023-01-09T02:58:44;4.40;;;1.45;;
53207;SDS011;39093;52.788;6.940;2023-01-09T03:01:37;5.90;;;1.58;;
53207;SDS011;39093;52.788;6.940;2023-01-09T03:04:18;3.63;;;1.30;;
53207;SDS011;39093;52.788;6.940;2023-01-09T03:07:06;5.40;;;1.42;;
53207;SDS011;39093;52.788;6.940;2023-01-09T03:09:47;3.88;;;1.58;;
53207;SDS011;39093;52.788;6.940;2023-01-09T03:12:18;4.40;;;1.77;;
53207;SDS011;39093;52.788;6.940;2023-01-09T03:14:48;4.40;;;1.73;;
53207;SDS011;39093;52.788;6.940;2023-01-09T03:17:21;3.67;;;1.80;;
53207;SDS011;39093;52.788;6.940;2023-01-09T03:19:52;2.78;;;1.70;;
53207;SDS011;39093;52.788;6.940;2023-01-09T03:22:22;6.53;;;2.72;;
53207;SDS011;39093;52.788;6.940;2023-01-09T03:24:48;5.28;;;1.83;;
53207;SDS011;39093;52.788;6.940;2023-01-09T03:27:16;6.57;;;2.13;;
53207;SDS011;39093;52.788;6.940;2023-01-09T03:29:43;4.93;;;1.77;;
53207;SDS011;39093;52.788;6.940;2023-01-09T03:32:11;5.13;;;2.33;;
53207;SDS011;39093;52.788;6.940;2023-01-09T03:34:38;4.57;;;2.15;;
53207;SDS011;39093;52.788;6.940;2023-01-09T03:37:05;4.88;;;2.38;;
53207;SDS011;39093;52.788;6.940;2023-01-09T03:39:31;4.22;;;2.15;;
53207;SDS011;39093;52.788;6.940;2023-01-09T03:41:58;5.80;;;2.50;;
53207;SDS011;39093;52.788;6.940;2023-01-09T03:44:26;7.70;;;2.40;;
53207;SDS011;39093;52.788;6.940;2023-01-09T03:46:53;4.63;;;2.47;;
53207;SDS011;39093;52.788;6.940;2023-01-09T03:49:20;4.60;;;2.55;;
53207;SDS011;39093;52.788;6.940;2023-01-09T03:51:46;13.80;;;2.90;;
53207;SDS011;39093;52.788;6.940;2023-01-09T03:54:13;5.43;;;2.83;;
53207;SDS011;39093;52.788;6.940;2023-01-09T03:56:40;10.15;;;3.75;;
53207;SDS011;39093;52.788;6.940;2023-01-09T03:59:07;6.18;;;2.47;;
53207;SDS011;39093;52.788;6.940;2023-01-09T04:01:34;5.32;;;2.78;;
53207;SDS011;39093;52.788;6.940;2023-01-09T04:04:01;9.07;;;3.22;;
53207;SDS011;39093;52.788;6.940;2023-01-09T04:06:28;7.65;;;3.67;;
53207;SDS011;39093;52.788;6.940;2023-01-09T04:08:55;6.82;;;3.63;;
53207;SDS011;39093;52.788;6.940;2023-01-09T04:11:22;8.80;;;3.30;;
53207;SDS011;39093;52.788;6.940;2023-01-09T04:13:49;6.75;;;3.70;;
53207;SDS011;39093;52.788;6.940;2023-01-09T04:16:16;8.70;;;3.80;;
53207;SDS011;39093;52.788;6.940;2023-01-09T04:18:43;7.35;;;4.30;;
53207;SDS011;39093;52.788;6.940;2023-01-09T04:21:10;7.68;;;3.92;;
53207;SDS011;39093;52.788;6.940;2023-01-09T04:23:37;7.75;;;4.20;;
53207;SDS011;39093;52.788;6.940;2023-01-09T04:26:04;9.77;;;5.15;;
53207;SDS011;39093;52.788;6.940;2023-01-09T04:28:31;8.80;;;5.40;;
53207;SDS011;39093;52.788;6.940;2023-01-09T04:30:58;14.32;;;5.55;;
53207;SDS011;39093;52.788;6.940;2023-01-09T04:33:25;10.90;;;6.05;;
53207;SDS011;39093;52.788;6.940;2023-01-09T04:35:52;11.38;;;6.72;;
53207;SDS011;39093;52.788;6.940;2023-01-09T04:38:19;13.30;;;6.95;;
53207;SDS011;39093;52.788;6.940;2023-01-09T04:40:46;16.10;;;6.50;;
53207;SDS011;39093;52.788;6.940;2023-01-09T04:43:14;14.02;;;7.22;;
53207;SDS011;39093;52.788;6.940;2023-01-09T04:45:41;11.38;;;8.25;;
53207;SDS011;39093;52.788;6.940;2023-01-09T04:48:08;13.65;;;8.55;;
53207;SDS011;39093;52.788;6.940;2023-01-09T04:50:35;14.48;;;8.38;;
53207;SDS011;39093;52.788;6.940;2023-01-09T04:53:02;15.40;;;8.98;;
53207;SDS011;39093;52.788;6.940;2023-01-09T04:55:31;16.70;;;10.43;;
53207;SDS011;39093;52.788;6.940;2023-01-09T04:57:58;14.63;;;10.20;;
53207;SDS011;39093;52.788;6.940;2023-01-09T05:00:25;19.45;;;10.82;;
53207;SDS011;39093;52.788;6.940;2023-01-09T05:02:52;15.30;;;9.98;;
53207;SDS011;39093;52.788;6.940;2023-01-09T05:05:19;21.05;;;10.73;;
53207;SDS011;39093;52.788;6.940;2023-01-09T05:07:45;19.35;;;10.55;;
53207;SDS011;39093;52.788;6.940;2023-01-09T05:10:12;21.17;;;10.85;;
53207;SDS011;39093;52.788;6.940;2023-01-09T05:12:39;18.02;;;11.20;;
53207;SDS011;39093;52.788;6.940;2023-01-09T05:15:06;21.20;;;11.25;;
53207;SDS011;39093;52.788;6.940;2023-01-09T05:17:34;19.05;;;10.70;;
53207;SDS011;39093;52.788;6.940;2023-01-09T05:20:01;21.60;;;10.52;;
53207;SDS011;39093;52.788;6.940;2023-01-09T05:22:28;20.70;;;10.63;;
53207;SDS011;39093;52.788;6.940;2023-01-09T05:24:55;16.85;;;10.20;;
53207;SDS011;39093;52.788;6.940;2023-01-09T05:27:24;18.20;;;9.65;;
53207;SDS011;39093;52.788;6.940;2023-01-09T05:29:52;17.67;;;10.15;;
53207;SDS011;39093;52.788;6.940;2023-01-09T05:32:19;15.57;;;9.40;;
53207;SDS011;39093;52.788;6.940;2023-01-09T05:34:46;15.63;;;9.10;;
53207;SDS011;39093;52.788;6.940;2023-01-09T05:37:13;18.35;;;9.68;;
53207;SDS011;39093;52.788;6.940;2023-01-09T05:39:40;13.85;;;8.68;;
53207;SDS011;39093;52.788;6.940;2023-01-09T05:42:06;18.80;;;9.65;;
53207;SDS011;39093;52.788;6.940;2023-01-09T05:44:33;13.18;;;8.23;;
53207;SDS011;39093;52.788;6.940;2023-01-09T05:47:00;15.30;;;8.15;;
53207;SDS011;39093;52.788;6.940;2023-01-09T05:49:28;15.45;;;8.00;;
53207;SDS011;39093;52.788;6.940;2023-01-09T05:51:55;14.75;;;8.68;;
53207;SDS011;39093;52.788;6.940;2023-01-09T05:54:22;16.02;;;7.68;;
53207;SDS011;39093;52.788;6.940;2023-01-09T05:56:49;17.92;;;8.23;;
53207;SDS011;39093;52.788;6.940;2023-01-09T05:59:16;15.93;;;8.38;;
53207;SDS011;39093;52.788;6.940;2023-01-09T06:01:43;18.42;;;8.32;;
53207;SDS011;39093;52.788;6.940;2023-01-09T06:04:10;14.88;;;8.93;;
53207;SDS011;39093;52.788;6.940;2023-01-09T06:06:36;16.27;;;8.65;;
53207;SDS011;39093;52.788;6.940;2023-01-09T06:09:05;17.40;;;7.93;;
53207;SDS011;39093;52.788;6.940;2023-01-09T06:11:32;11.93;;;7.60;;
53207;SDS011;39093;52.788;6.940;2023-01-09T06:14:01;15.65;;;7.95;;
53207;SDS011;39093;52.788;6.940;2023-01-09T06:16:28;15.02;;;7.25;;
53207;SDS011;39093;52.788;6.940;2023-01-09T06:18:55;16.85;;;7.43;;
53207;SDS011;39093;52.788;6.940;2023-01-09T06:21:22;16.05;;;7.18;;
53207;SDS011;39093;52.788;6.940;2023-01-09T06:23:49;13.27;;;6.78;;
53207;SDS011;39093;52.788;6.940;2023-01-09T06:26:16;12.18;;;6.50;;
53207;SDS011;39093;52.788;6.940;2023-01-09T06:28:43;13.30;;;6.15;;
53207;SDS011;39093;52.788;6.940;2023-01-09T06:31:10;9.13;;;6.15;;
53207;SDS011;39093;52.788;6.940;2023-01-09T06:33:37;12.45;;;6.28;;
53207;SDS011;39093;52.788;6.940;2023-01-09T06:36:04;13.73;;;5.53;;
53207;SDS011;39093;52.788;6.940;2023-01-09T06:38:31;14.20;;;5.53;;
53207;SDS011;39093;52.788;6.940;2023-01-09T06:40:58;11.45;;;5.47;;
53207;SDS011;39093;52.788;6.940;2023-01-09T06:43:25;13.10;;;5.60;;
53207;SDS011;39093;52.788;6.940;2023-01-09T06:45:52;10.48;;;5.10;;
53207;SDS011;39093;52.788;6.940;2023-01-09T06:48:19;10.43;;;4.75;;
53207;SDS011;39093;52.788;6.940;2023-01-09T06:50:46;12.63;;;5.25;;
53207;SDS011;39093;52.788;6.940;2023-01-09T06:53:13;6.55;;;4.13;;
53207;SDS011;39093;52.788;6.940;2023-01-09T06:55:40;11.30;;;4.60;;
53207;SDS011;39093;52.788;6.940;2023-01-09T06:58:07;13.65;;;4.50;;
53207;SDS011;39093;52.788;6.940;2023-01-09T07:00:34;8.07;;;4.65;;
53207;SDS011;39093;52.788;6.940;2023-01-09T07:03:01;13.52;;;4.55;;
53207;SDS011;39093;52.788;6.940;2023-01-09T07:05:29;13.25;;;4.15;;
53207;SDS011;39093;52.788;6.940;2023-01-09T07:07:56;8.20;;;3.72;;
53207;SDS011;39093;52.788;6.940;2023-01-09T07:10:23;10.18;;;3.75;;
53207;SDS011;39093;52.788;6.940;2023-01-09T07:12:50;13.32;;;4.35;;
53207;SDS011;39093;52.788;6.940;2023-01-09T07:15:17;8.27;;;4.53;;
53207;SDS011;39093;52.788;6.940;2023-01-09T07:17:44;10.00;;;3.90;;
53207;SDS011;39093;52.788;6.940;2023-01-09T07:20:10;15.63;;;4.57;;
53207;SDS011;39093;52.788;6.940;2023-01-09T07:22:37;9.63;;;4.05;;
53207;SDS011;39093;52.788;6.940;2023-01-09T07:25:04;9.27;;;4.20;;
53207;SDS011;39093;52.788;6.940;2023-01-09T07:27:37;8.18;;;3.88;;
53207;SDS011;39093;52.788;6.940;2023-01-09T07:30:04;12.15;;;3.95;;
53207;SDS011;39093;52.788;6.940;2023-01-09T07:32:32;12.05;;;4.43;;
53207;SDS011;39093;52.788;6.940;2023-01-09T07:34:59;9.95;;;4.18;;
53207;SDS011;39093;52.788;6.940;2023-01-09T07:37:26;12.43;;;5.03;;
53207;SDS011;39093;52.788;6.940;2023-01-09T07:39:55;7.60;;;4.38;;
53207;SDS011;39093;52.788;6.940;2023-01-09T07:42:22;10.88;;;4.82;;
53207;SDS011;39093;52.788;6.940;2023-01-09T07:44:49;13.48;;;4.72;;
53207;SDS011;39093;52.788;6.940;2023-01-09T07:47:16;16.10;;;4.88;;
53207;SDS011;39093;52.788;6.940;2023-01-09T07:49:43;13.77;;;4.22;;
53207;SDS011;39093;52.788;6.940;2023-01-09T07:54:43;9.85;;;4.47;;
53207;SDS011;39093;52.788;6.940;2023-01-09T07:57:10;9.75;;;4.35;;
53207;SDS011;39093;52.788;6.940;2023-01-09T07:59:37;12.55;;;4.28;;
53207;SDS011;39093;52.788;6.940;2023-01-09T08:02:04;12.88;;;4.53;;
53207;SDS011;39093;52.788;6.940;2023-01-09T08:04:32;12.82;;;4.45;;
53207;SDS011;39093;52.788;6.940;2023-01-09T08:07:00;7.03;;;3.97;;
53207;SDS011;39093;52.788;6.940;2023-01-09T08:09:29;12.73;;;4.55;;
53207;SDS011;39093;52.788;6.940;2023-01-09T08:11:56;22.55;;;10.77;;
53207;SDS011;39093;52.788;6.940;2023-01-09T08:14:23;16.20;;;3.90;;
53207;SDS011;39093;52.788;6.940;2023-01-09T08:16:49;5.95;;;3.33;;
53207;SDS011;39093;52.788;6.940;2023-01-09T08:19:16;10.00;;;3.90;;
53207;SDS011;39093;52.788;6.940;2023-01-09T08:21:43;8.35;;;3.22;;
53207;SDS011;39093;52.788;6.940;2023-01-09T08:24:10;6.53;;;3.92;;
53207;SDS011;39093;52.788;6.940;2023-01-09T08:26:37;11.88;;;4.28;;
53207;SDS011;39093;52.788;6.940;2023-01-09T08:29:04;14.73;;;5.07;;
53207;SDS011;39093;52.788;6.940;2023-01-09T08:31:31;13.93;;;3.58;;
53207;SDS011;39093;52.788;6.940;2023-01-09T08:33:58;9.57;;;3.65;;
53207;SDS011;39093;52.788;6.940;2023-01-09T08:36:25;17.20;;;3.58;;
53207;SDS011;39093;52.788;6.940;2023-01-09T08:38:52;11.63;;;3.75;;
53207;SDS011;39093;52.788;6.940;2023-01-09T08:41:19;9.40;;;3.53;;
53207;SDS011;39093;52.788;6.940;2023-01-09T08:44:04;12.02;;;2.85;;
53207;SDS011;39093;52.788;6.940;2023-01-09T08:46:50;12.90;;;3.33;;
53207;SDS011;39093;52.788;6.940;2023-01-09T08:49:32;8.85;;;3.60;;
53207;SDS011;39093;52.788;6.940;2023-01-09T08:52:07;13.20;;;4.05;;
53207;SDS011;39093;52.788;6.940;2023-01-09T08:54:37;15.98;;;3.72;;
53207;SDS011;39093;52.788;6.940;2023-01-09T08:57:05;16.58;;;3.75;;
53207;SDS011;39093;52.788;6.940;2023-01-09T08:59:33;11.10;;;3.22;;
53207;SDS011;39093;52.788;6.940;2023-01-09T09:02:00;13.38;;;3.63;;
53207;SDS011;39093;52.788;6.940;2023-01-09T09:04:27;14.30;;;4.47;;
53207;SDS011;39093;52.788;6.940;2023-01-09T09:06:54;15.88;;;4.10;;
53207;SDS011;39093;52.788;6.940;2023-01-09T09:09:21;13.35;;;3.47;;
53207;SDS011;39093;52.788;6.940;2023-01-09T09:11:48;8.48;;;3.53;;
53207;SDS011;39093;52.788;6.940;2023-01-09T09:14:15;10.27;;;3.67;;
53207;SDS011;39093;52.788;6.940;2023-01-09T09:17:00;6.70;;;3.00;;
53207;SDS011;39093;52.788;6.940;2023-01-09T09:19:27;12.95;;;3.83;;
53207;SDS011;39093;52.788;6.940;2023-01-09T09:21:54;16.65;;;4.07;;
53207;SDS011;39093;52.788;6.940;2023-01-09T09:24:21;13.63;;;4.55;;
53207;SDS011;39093;52.788;6.940;2023-01-09T09:26:48;8.18;;;3.40;;
53207;SDS011;39093;52.788;6.940;2023-01-09T09:29:15;17.00;;;4.07;;
53207;SDS011;39093;52.788;6.940;2023-01-09T09:31:42;15.65;;;4.00;;
53207;SDS011;39093;52.788;6.940;2023-01-09T09:34:09;9.30;;;3.67;;
53207;SDS011;39093;52.788;6.940;2023-01-09T09:36:35;9.25;;;3.30;;
53207;SDS011;39093;52.788;6.940;2023-01-09T09:39:02;14.82;;;4.38;;
53207;SDS011;39093;52.788;6.940;2023-01-09T09:47:36;16.02;;;4.25;;
53207;SDS011;39093;52.788;6.940;2023-01-09T09:53:08;14.27;;;3.45;;
53207;SDS011;39093;52.788;6.940;2023-01-09T09:55:40;12.18;;;3.33;;
53207;SDS011;39093;52.788;6.940;2023-01-09T09:58:15;14.27;;;3.63;;
53207;SDS011;39093;52.788;6.940;2023-01-09T10:01:02;13.50;;;3.55;;
53207;SDS011;39093;52.788;6.940;2023-01-09T10:04:05;11.05;;;3.97;;
53207;SDS011;39093;52.788;6.940;2023-01-09T10:06:27;11.40;;;3.65;;
53207;SDS011;39093;52.788;6.940;2023-01-09T10:09:22;11.27;;;2.88;;
53207;SDS011;39093;52.788;6.940;2023-01-09T10:12:11;7.03;;;2.40;;
53207;SDS011;39093;52.788;6.940;2023-01-09T10:14:59;6.95;;;2.55;;
53207;SDS011;39093;52.788;6.940;2023-01-09T10:17:38;11.48;;;3.17;;
53207;SDS011;39093;52.788;6.940;2023-01-09T10:26:16;13.27;;;5.00;;
53207;SDS011;39093;52.788;6.940;2023-01-09T10:36:55;11.85;;;3.92;;
53207;SDS011;39093;52.788;6.940;2023-01-09T10:45:05;10.23;;;3.10;;
53207;SDS011;39093;52.788;6.940;2023-01-09T10:47:45;5.15;;;2.22;;
53207;SDS011;39093;52.788;6.940;2023-01-09T10:50:51;9.27;;;3.13;;
53207;SDS011;39093;52.788;6.940;2023-01-09T10:53:22;6.53;;;2.78;;
53207;SDS011;39093;52.788;6.940;2023-01-09T10:55:58;11.73;;;3.00;;
53207;SDS011;39093;52.788;6.940;2023-01-09T10:58:29;11.45;;;3.38;;
53207;SDS011;39093;52.788;6.940;2023-01-09T11:00:56;10.50;;;3.45;;
53207;SDS011;39093;52.788;6.940;2023-01-09T11:03:26;7.90;;;3.10;;
53207;SDS011;39093;52.788;6.940;2023-01-09T11:05:55;12.15;;;3.38;;
53207;SDS011;39093;52.788;6.940;2023-01-09T11:08:28;5.43;;;2.75;;
53207;SDS011;39093;52.788;6.940;2023-01-09T11:11:07;8.07;;;3.72;;
53207;SDS011;39093;52.788;6.940;2023-01-09T11:13:36;8.75;;;3.97;;
53207;SDS011;39093;52.788;6.940;2023-01-09T11:18:37;5.13;;;3.47;;
53207;SDS011;39093;52.788;6.940;2023-01-09T11:24:24;9.05;;;3.97;;
53207;SDS011;39093;52.788;6.940;2023-01-09T11:29:41;9.55;;;3.97;;
53207;SDS011;39093;52.788;6.940;2023-01-09T11:32:21;8.10;;;4.10;;
53207;SDS011;39093;52.788;6.940;2023-01-09T11:34:49;7.07;;;3.63;;
53207;SDS011;39093;52.788;6.940;2023-01-09T11:37:21;8.52;;;4.00;;
53207;SDS011;39093;52.788;6.940;2023-01-09T11:42:19;6.43;;;4.05;;
53207;SDS011;39093;52.788;6.940;2023-01-09T11:50:56;8.52;;;5.80;;
53207;SDS011;39093;52.788;6.940;2023-01-09T11:56:23;9.43;;;5.38;;
53207;SDS011;39093;52.788;6.940;2023-01-09T11:58:50;12.90;;;6.38;;
53207;SDS011;39093;52.788;6.940;2023-01-09T12:01:32;10.43;;;7.03;;
53207;SDS011;39093;52.788;6.940;2023-01-09T12:15:29;12.43;;;7.28;;
53207;SDS011;39093;52.788;6.940;2023-01-09T12:21:34;15.85;;;9.05;;
53207;SDS011;39093;52.788;6.940;2023-01-09T12:26:49;9.90;;;8.63;;
53207;SDS011;39093;52.788;6.940;2023-01-09T12:32:23;14.75;;;9.57;;
53207;SDS011;39093;52.788;6.940;2023-01-09T12:35:06;16.17;;;9.15;;
53207;SDS011;39093;52.788;6.940;2023-01-09T12:44:04;18.33;;;10.25;;
53207;SDS011;39093;52.788;6.940;2023-01-09T12:49:39;20.77;;;11.07;;
53207;SDS011;39093;52.788;6.940;2023-01-09T12:52:33;18.08;;;11.45;;
53207;SDS011;39093;52.788;6.940;2023-01-09T12:55:26;20.20;;;11.27;;
53207;SDS011;39093;52.788;6.940;2023-01-09T12:57:56;21.10;;;11.65;;
53207;SDS011;39093;52.788;6.940;2023-01-09T13:00:27;17.90;;;11.32;;
53207;SDS011;39093;52.788;6.940;2023-01-09T13:05:47;21.23;;;11.75;;
53207;SDS011;39093;52.788;6.940;2023-01-09T13:11:05;21.58;;;12.40;;
53207;SDS011;39093;52.788;6.940;2023-01-09T13:16:23;19.02;;;12.02;;
53207;SDS011;39093;52.788;6.940;2023-01-09T13:19:02;23.10;;;11.93;;
53207;SDS011;39093;52.788;6.940;2023-01-09T13:21:40;21.30;;;12.25;;
53207;SDS011;39093;52.788;6.940;2023-01-09T13:26:59;18.02;;;13.20;;
53207;SDS011;39093;52.788;6.940;2023-01-09T13:29:41;17.80;;;11.85;;
53207;SDS011;39093;52.788;6.940;2023-01-09T13:32:32;17.13;;;12.55;;
53207;SDS011;39093;52.788;6.940;2023-01-09T13:35:27;25.80;;;13.38;;
53207;SDS011;39093;52.788;6.940;2023-01-09T13:37:54;19.73;;;13.60;;
53207;SDS011;39093;52.788;6.940;2023-01-09T13:43:02;20.50;;;13.73;;
53207;SDS011;39093;52.788;6.940;2023-01-09T13:45:31;19.40;;;12.93;;
53207;SDS011;39093;52.788;6.940;2023-01-09T13:50:39;19.48;;;12.93;;
53207;SDS011;39093;52.788;6.940;2023-01-09T14:01:04;20.77;;;13.68;;
53207;SDS011;39093;52.788;6.940;2023-01-09T14:09:42;22.25;;;13.93;;
53207;SDS011;39093;52.788;6.940;2023-01-09T14:12:14;20.70;;;11.63;;
53207;SDS011;39093;52.788;6.940;2023-01-09T14:14:44;21.65;;;12.30;;
53207;SDS011;39093;52.788;6.940;2023-01-09T14:17:32;22.27;;;11.18;;
53207;SDS011;39093;52.788;6.940;2023-01-09T14:20:06;17.38;;;10.90;;
53207;SDS011;39093;52.788;6.940;2023-01-09T14:22:50;21.83;;;9.90;;
53207;SDS011;39093;52.788;6.940;2023-01-09T14:25:43;21.48;;;10.48;;
53207;SDS011;39093;52.788;6.940;2023-01-09T14:28:20;24.38;;;10.93;;
53207;SDS011;39093;52.788;6.940;2023-01-09T14:47:27;22.40;;;8.23;;
53207;SDS011;39093;52.788;6.940;2023-01-09T14:50:04;27.83;;;8.40;;
53207;SDS011;39093;52.788;6.940;2023-01-09T14:52:46;19.52;;;7.25;;
53207;SDS011;39093;52.788;6.940;2023-01-09T14:55:25;18.20;;;7.20;;
53207;SDS011;39093;52.788;6.940;2023-01-09T15:01:17;19.02;;;6.78;;
53207;SDS011;39093;52.788;6.940;2023-01-09T15:03:56;20.55;;;6.57;;
53207;SDS011;39093;52.788;6.940;2023-01-09T15:09:08;21.40;;;6.38;;
53207;SDS011;39093;52.788;6.940;2023-01-09T15:11:42;12.80;;;4.38;;
53207;SDS011;39093;52.788;6.940;2023-01-09T15:14:29;22.65;;;5.78;;
53207;SDS011;39093;52.788;6.940;2023-01-09T15:16:59;18.17;;;4.95;;
53207;SDS011;39093;52.788;6.940;2023-01-09T15:19:29;18.45;;;4.63;;
53207;SDS011;39093;52.788;6.940;2023-01-09T15:21:58;15.23;;;4.50;;
53207;SDS011;39093;52.788;6.940;2023-01-09T15:24:28;16.95;;;4.38;;
53207;SDS011;39093;52.788;6.940;2023-01-09T15:27:02;19.50;;;4.57;;
53207;SDS011;39093;52.788;6.940;2023-01-09T15:29:36;16.30;;;4.10;;
53207;SDS011;39093;52.788;6.940;2023-01-09T15:32:14;18.35;;;4.15;;
53207;SDS011;39093;52.788;6.940;2023-01-09T15:34:47;17.15;;;4.90;;
53207;SDS011;39093;52.788;6.940;2023-01-09T15:39:58;22.90;;;4.10;;
53207;SDS011;39093;52.788;6.940;2023-01-09T15:42:32;15.38;;;4.20;;
53207;SDS011;39093;52.788;6.940;2023-01-09T15:45:27;19.55;;;4.15;;
53207;SDS011;39093;52.788;6.940;2023-01-09T15:51:01;15.02;;;2.80;;
53207;SDS011;39093;52.788;6.940;2023-01-09T15:53:35;19.83;;;3.97;;
53207;SDS011;39093;52.788;6.940;2023-01-09T15:56:16;13.90;;;3.25;;
53207;SDS011;39093;52.788;6.940;2023-01-09T15:59:14;16.63;;;3.20;;
53207;SDS011;39093;52.788;6.940;2023-01-09T16:01:53;18.60;;;3.90;;
53207;SDS011;39093;52.788;6.940;2023-01-09T16:05:11;17.33;;;3.75;;
53207;SDS011;39093;52.788;6.940;2023-01-09T16:07:46;14.38;;;3.03;;
53207;SDS011;39093;52.788;6.940;2023-01-09T16:10:31;24.52;;;4.35;;
53207;SDS011;39093;52.788;6.940;2023-01-09T16:13:14;16.75;;;3.58;;
53207;SDS011;39093;52.788;6.940;2023-01-09T16:15:42;15.80;;;3.20;;
53207;SDS011;39093;52.788;6.940;2023-01-09T16:20:43;21.25;;;4.60;;
53207;SDS011;39093;52.788;6.940;2023-01-09T16:23:21;18.30;;;3.50;;
53207;SDS011;39093;52.788;6.940;2023-01-09T16:26:10;21.13;;;4.20;;
53207;SDS011;39093;52.788;6.940;2023-01-09T16:28:40;22.65;;;4.72;;
53207;SDS011;39093;52.788;6.940;2023-01-09T16:32:16;23.88;;;4.43;;
53207;SDS011;39093;52.788;6.940;2023-01-09T16:34:47;15.15;;;3.63;;
53207;SDS011;39093;52.788;6.940;2023-01-09T16:37:20;17.70;;;3.95;;
53207;SDS011;39093;52.788;6.940;2023-01-09T16:42:31;24.80;;;5.32;;
53207;SDS011;39093;52.788;6.940;2023-01-09T16:45:17;21.90;;;3.47;;
53207;SDS011;39093;52.788;6.940;2023-01-09T16:47:55;23.17;;;4.25;;
53207;SDS011;39093;52.788;6.940;2023-01-09T16:50:23;19.88;;;4.22;;
53207;SDS011;39093;52.788;6.940;2023-01-09T16:52:50;19.20;;;4.05;;
53207;SDS011;39093;52.788;6.940;2023-01-09T16:55:50;18.83;;;3.90;;
53207;SDS011;39093;52.788;6.940;2023-01-09T16:58:30;18.30;;;4.15;;
53207;SDS011;39093;52.788;6.940;2023-01-09T17:01:27;24.65;;;3.75;;
53207;SDS011;39093;52.788;6.940;2023-01-09T17:03:57;16.33;;;4.10;;
53207;SDS011;39093;52.788;6.940;2023-01-09T17:06:29;23.73;;;4.47;;
53207;SDS011;39093;52.788;6.940;2023-01-09T17:09:01;16.83;;;4.28;;
53207;SDS011;39093;52.788;6.940;2023-01-09T17:11:52;18.77;;;4.38;;
53207;SDS011;39093;52.788;6.940;2023-01-09T17:14:19;34.47;;;5.68;;
53207;SDS011;39093;52.788;6.940;2023-01-09T17:16:46;18.88;;;4.55;;
53207;SDS011;39093;52.788;6.940;2023-01-09T17:19:17;22.95;;;4.88;;
53207;SDS011;39093;52.788;6.940;2023-01-09T17:21:51;21.23;;;5.60;;
53207;SDS011;39093;52.788;6.940;2023-01-09T17:24:40;10.73;;;3.72;;
53207;SDS011;39093;52.788;6.940;2023-01-09T17:27:44;20.75;;;3.97;;
53207;SDS011;39093;52.788;6.940;2023-01-09T17:30:30;23.38;;;5.00;;
53207;SDS011;39093;52.788;6.940;2023-01-09T17:36:00;21.33;;;5.15;;
53207;SDS011;39093;52.788;6.940;2023-01-09T17:38:28;19.15;;;4.38;;
53207;SDS011;39093;52.788;6.940;2023-01-09T17:40:55;19.17;;;4.88;;
53207;SDS011;39093;52.788;6.940;2023-01-09T17:43:22;16.70;;;3.80;;
53207;SDS011;39093;52.788;6.940;2023-01-09T17:45:49;18.27;;;4.18;;
53207;SDS011;39093;52.788;6.940;2023-01-09T17:48:37;20.88;;;4.63;;
53207;SDS011;39093;52.788;6.940;2023-01-09T17:51:22;18.95;;;5.28;;
53207;SDS011;39093;52.788;6.940;2023-01-09T17:53:49;27.17;;;4.97;;
53207;SDS011;39093;52.788;6.940;2023-01-09T17:56:26;19.58;;;4.93;;
53207;SDS011;39093;52.788;6.940;2023-01-09T17:58:57;13.07;;;4.97;;
53207;SDS011;39093;52.788;6.940;2023-01-09T18:01:24;35.35;;;8.50;;
53207;SDS011;39093;52.788;6.940;2023-01-09T18:03:51;46.92;;;15.25;;
53207;SDS011;39093;52.788;6.940;2023-01-09T18:06:18;39.92;;;15.05;;
53207;SDS011;39093;52.788;6.940;2023-01-09T18:08:46;27.05;;;11.30;;
53207;SDS011;39093;52.788;6.940;2023-01-09T18:11:15;26.08;;;9.98;;